Central Square, NY (13036)

12:29 AM EST on March 02, 2015 (GMT -0500)
Oneida River | Change Station
CLOSE
Current Station
Personal Weather Station
Location: Pennellville, NY
Elevation: 377 ft
Nearby Weather Stations

Elev 377 ft 43.24 °N, 76.25 °W | Updated 1 minute ago

Overcast
Overcast
25.0 °F
Feels Like 25 °F
N
0.0
Wind Variable Wind from West
Gusts 0.0 mph

Today
High -- | Low -- °F
--% Chance of Precip.
Yesterday
High -- | Low -- °F
Precip. -- in
6:39 AM 5:54 PM
Waxing Gibbous, 89% visible
Pressure 30.08 in
Visibility 2.5 miles
Clouds Mostly Cloudy 2400 ft
Overcast 3000 ft
Windchill 25 °F
Dew Point 20 °F
Humidity 81%
Rainfall 0.00 in
Snow Depth Not available.
UV 0 out of 12
Pollen .40 out of 12
Air Quality Not available.
Flu Activity Not available.
SPECI KSYR 020515Z 26003KT 2 1/2SM -SN BR BKN024 OVC030 M06/M06 A3008 RMK T10621064

More Conditions Fewer Conditions

Pressure 30.08 in
Visibility 2.5 miles
Clouds Mostly Cloudy 2400 ft
Overcast 3000 ft
Windchill 25 °F
Dew Point 20 °F
Humidity 81%
Rainfall 0.00 in
Snow Depth Not available.
UV 0 out of 12
Pollen .40 out of 12
Air Quality Not available.
Flu Activity Not available.
SPECI KSYR 020515Z 26003KT 2 1/2SM -SN BR BKN024 OVC030 M06/M06 A3008 RMK T10621064

More Conditions Fewer Conditions

10-Day Weather Forecast

Almanac

Astronomy

Mar. 02, 2015 Rise Set
Actual Time
Civil Twilight
Nautical Twilight
Astronomical Twilight
Moon
Length of Visible Light
Length of Day
Tomorrow will be .
, % of the Moon is Illuminated

Today's Extremes

State Highs State Lows

Community

WunderPhotos

Upload Photos

1,801,731 photos uploaded!

WunderBlogs® & News

Nearby

Air Quality

  Air Quality AQ Index Pollutant
Not available.

Snow Depth

Station Depth Elevation

Earthquake Activity

City Distance Mag. Time & Date
Minimum magnitude displayed is 2.5.

Coastal Water Temperatures

Place Temperature

Nearby Weather Stations